Terminal Aerodrome Forecast
Issued by NWS

Home | Current Version | Previous Version | Text Only | Print | Product List | Glossary On
Versions: 1 2 3 4 5 6 7 8 9 10 11 12 13 14
500
FTPA31 PHFO 251959 AAA
TAFHKO
TAF AMD
PHKO 251959Z 2520/2618 24010KT P6SM SCT030 BKN050
     FM260600 15006KT P6SM SCT030 SCT050
     FM261000 07006KT P6SM SCT050=

USA.gov is the U.S. government's official web portal to all federal, state and local government web resources and services.